createdAt,value
2022-10-06T00:00:35.825Z,2.03
2022-10-06T00:03:02.598Z,1.85
2022-10-06T00:05:29.538Z,1.83
2022-10-06T00:07:56.263Z,2.00
2022-10-06T00:10:23.097Z,1.88
2022-10-06T00:12:51.261Z,2.25
2022-10-06T00:15:21.929Z,1.95
2022-10-06T00:17:48.794Z,1.98
2022-10-06T00:20:15.964Z,1.90
2022-10-06T00:22:45.051Z,2.00
2022-10-06T00:25:14.731Z,1.98
2022-10-06T00:27:44.118Z,1.92
2022-10-06T00:30:14.130Z,1.70
2022-10-06T00:32:49.503Z,1.80
2022-10-06T00:35:16.430Z,1.67
2022-10-06T00:37:43.143Z,1.88
2022-10-06T00:40:10.699Z,2.28
2022-10-06T00:42:50.146Z,2.00
2022-10-06T00:45:18.309Z,1.70
2022-10-06T00:47:46.707Z,1.73
2022-10-06T00:50:15.351Z,2.00
2022-10-06T00:52:42.737Z,1.90
2022-10-06T00:55:09.644Z,2.22
2022-10-06T00:57:37.540Z,2.20
2022-10-06T01:00:05.085Z,1.55
2022-10-06T01:02:37.608Z,1.58
2022-10-06T01:05:08.289Z,1.65
2022-10-06T01:07:35.130Z,1.50
2022-10-06T01:10:01.920Z,1.70
2022-10-06T01:12:30.607Z,1.70
2022-10-06T01:14:57.409Z,1.60
2022-10-06T01:17:31.222Z,1.60
2022-10-06T01:20:00.861Z,1.85
2022-10-06T01:22:30.719Z,1.50
2022-10-06T01:24:57.977Z,1.80
2022-10-06T01:27:28.714Z,1.90
2022-10-06T01:29:57.467Z,1.77
2022-10-06T01:32:26.843Z,1.70
2022-10-06T01:34:53.643Z,1.70
2022-10-06T01:37:20.490Z,1.70
2022-10-06T01:39:48.546Z,1.63
2022-10-06T01:42:15.404Z,1.92
2022-10-06T01:44:42.106Z,1.63
2022-10-06T01:47:09.201Z,2.33
2022-10-06T01:49:35.930Z,1.50
2022-10-06T01:52:03.393Z,1.20
2022-10-06T01:54:30.198Z,1.48
2022-10-06T01:56:58.383Z,1.60
2022-10-06T01:59:25.302Z,1.60
2022-10-06T02:01:52.241Z,1.60
2022-10-06T02:04:19.184Z,1.83
2022-10-06T02:06:45.990Z,1.88
2022-10-06T02:09:12.821Z,1.40
2022-10-06T02:11:39.624Z,1.63
2022-10-06T02:14:07.710Z,1.55
2022-10-06T02:16:34.488Z,1.38
2022-10-06T02:19:01.255Z,1.73
2022-10-06T02:21:27.974Z,1.50
2022-10-06T02:23:54.735Z,1.40
2022-10-06T02:26:21.484Z,1.50
2022-10-06T02:28:48.286Z,1.70
2022-10-06T02:31:17.118Z,1.40
2022-10-06T02:33:44.366Z,1.50
2022-10-06T02:36:12.588Z,1.80
2022-10-06T02:38:39.411Z,1.50
2022-10-06T02:41:06.485Z,1.67
2022-10-06T02:43:34.155Z,1.65
2022-10-06T02:46:02.544Z,1.80
2022-10-06T02:48:31.793Z,1.70
2022-10-06T02:51:01.437Z,1.20
2022-10-06T02:53:28.719Z,1.38
2022-10-06T02:55:59.459Z,1.23
2022-10-06T02:58:27.031Z,1.80
2022-10-06T03:00:54.058Z,1.50
2022-10-06T03:03:20.837Z,1.30
2022-10-06T03:05:48.900Z,1.35
2022-10-06T03:08:15.624Z,1.60
2022-10-06T03:10:42.370Z,1.67
2022-10-06T03:13:09.227Z,1.40
2022-10-06T03:15:36.079Z,1.48
2022-10-06T03:18:02.891Z,1.30
2022-10-06T03:20:29.622Z,1.45
2022-10-06T03:22:57.686Z,1.45
2022-10-06T03:25:24.479Z,1.65
2022-10-06T03:27:51.335Z,1.50
2022-10-06T03:30:18.079Z,1.30
2022-10-06T03:32:44.797Z,1.38
2022-10-06T03:35:11.552Z,1.48
2022-10-06T03:37:38.411Z,1.55
2022-10-06T03:40:07.643Z,1.65
2022-10-06T03:42:34.389Z,1.40
2022-10-06T03:45:01.284Z,1.48
2022-10-06T03:47:29.743Z,1.52
2022-10-06T03:49:56.661Z,1.35
2022-10-06T03:52:26.008Z,1.50
2022-10-06T03:54:53.003Z,1.52
2022-10-06T03:57:21.120Z,1.23
2022-10-06T03:59:47.857Z,1.60
2022-10-06T04:02:14.730Z,1.70
2022-10-06T04:04:41.498Z,1.80
2022-10-06T04:07:08.219Z,1.77
2022-10-06T04:09:34.955Z,1.60
2022-10-06T04:12:01.679Z,1.33
2022-10-06T04:14:29.778Z,1.58
2022-10-06T04:16:56.515Z,1.42
2022-10-06T04:19:23.297Z,1.45
2022-10-06T04:21:50.059Z,1.60
2022-10-06T04:24:16.839Z,1.60
2022-10-06T04:26:45.823Z,1.48
2022-10-06T04:29:12.943Z,1.60
2022-10-06T04:31:41.813Z,1.63
2022-10-06T04:34:11.125Z,1.90
2022-10-06T04:36:40.829Z,1.55
2022-10-06T04:39:09.205Z,1.52
2022-10-06T04:41:38.657Z,1.42
2022-10-06T04:44:05.856Z,1.65
2022-10-06T04:46:43.902Z,1.58
2022-10-06T04:49:19.425Z,1.75
2022-10-06T04:51:47.198Z,1.48
2022-10-06T04:54:13.939Z,1.80
2022-10-06T04:56:40.692Z,1.70
2022-10-06T04:59:07.537Z,1.55
2022-10-06T05:01:36.037Z,1.92
2022-10-06T05:04:04.127Z,1.55
2022-10-06T05:06:34.187Z,1.60
2022-10-06T05:09:03.048Z,1.73
2022-10-06T05:11:30.156Z,1.52
2022-10-06T05:13:58.394Z,1.52
2022-10-06T05:16:26.791Z,1.52
2022-10-06T05:18:53.699Z,2.22
2022-10-06T05:21:22.277Z,1.52
2022-10-06T05:23:50.651Z,1.90
2022-10-06T05:26:19.487Z,1.73
2022-10-06T05:28:46.496Z,1.83
2022-10-06T05:31:15.095Z,1.88
2022-10-06T05:33:42.466Z,2.80
2022-10-06T05:36:11.084Z,1.83
2022-10-06T05:38:38.101Z,1.77
2022-10-06T05:41:07.813Z,1.90
2022-10-06T05:43:35.180Z,2.05
2022-10-06T05:46:04.192Z,1.85
2022-10-06T05:48:31.827Z,1.80
2022-10-06T05:50:59.974Z,1.80
2022-10-06T05:53:27.054Z,2.25
2022-10-06T05:56:02.684Z,1.60
2022-10-06T05:58:31.406Z,2.00
2022-10-06T06:01:06.519Z,2.22
2022-10-06T06:03:33.302Z,2.17
2022-10-06T06:06:00.742Z,2.13
2022-10-06T06:08:27.964Z,2.40
2022-10-06T06:10:54.945Z,1.60
2022-10-06T06:13:22.236Z,2.17
2022-10-06T06:15:50.319Z,1.90
2022-10-06T06:18:17.117Z,2.60
2022-10-06T06:20:43.854Z,1.85
2022-10-06T06:23:10.567Z,1.77
2022-10-06T06:25:37.275Z,1.40
2022-10-06T06:28:04.226Z,1.45
2022-10-06T06:30:31.007Z,1.60
2022-10-06T06:32:59.111Z,1.15
2022-10-06T06:35:25.983Z,1.60
2022-10-06T06:37:52.835Z,1.50
2022-10-06T06:40:19.623Z,1.38
2022-10-06T06:42:50.295Z,1.73
2022-10-06T06:45:19.853Z,1.40
2022-10-06T06:47:48.036Z,1.55
2022-10-06T06:50:16.325Z,1.92
2022-10-06T06:52:43.116Z,1.27
2022-10-06T06:55:09.884Z,1.70
2022-10-06T06:57:36.604Z,1.45
2022-10-06T07:00:04.650Z,1.77
2022-10-06T07:02:31.382Z,1.85
2022-10-06T07:04:58.130Z,1.92
2022-10-06T07:07:26.320Z,1.63
2022-10-06T07:09:53.172Z,1.52
2022-10-06T07:12:19.901Z,1.55
2022-10-06T07:14:46.855Z,1.60
2022-10-06T07:17:13.692Z,2.13
2022-10-06T07:19:40.451Z,1.88
2022-10-06T07:22:15.114Z,1.80
2022-10-06T07:24:43.261Z,1.60
2022-10-06T07:27:10.635Z,1.55
2022-10-06T07:29:37.427Z,1.85
2022-10-06T07:32:04.317Z,1.70
2022-10-06T07:34:31.164Z,1.90
2022-10-06T07:37:00.516Z,2.03
2022-10-06T07:39:29.559Z,1.90
2022-10-06T07:41:57.903Z,1.67
2022-10-06T07:44:24.631Z,1.65
2022-10-06T07:46:51.335Z,1.45
2022-10-06T07:49:18.131Z,2.20
2022-10-06T07:51:45.099Z,1.77
2022-10-06T07:54:11.835Z,2.03
2022-10-06T07:56:38.562Z,1.90
2022-10-06T07:59:06.770Z,1.60
2022-10-06T08:01:33.555Z,1.45
2022-10-06T08:04:00.311Z,1.90
2022-10-06T08:06:27.148Z,1.80
2022-10-06T08:08:53.892Z,1.83
2022-10-06T08:11:21.265Z,1.90
2022-10-06T08:13:48.207Z,1.73
2022-10-06T08:16:18.189Z,2.13
2022-10-06T08:18:49.151Z,1.80
2022-10-06T08:21:18.119Z,1.95
2022-10-06T08:23:46.378Z,2.13
2022-10-06T08:26:14.272Z,1.90
2022-10-06T08:28:44.587Z,1.65
2022-10-06T08:31:11.471Z,1.88
2022-10-06T08:33:39.984Z,2.10
2022-10-06T08:36:08.779Z,2.45
2022-10-06T08:38:36.242Z,2.03
2022-10-06T08:41:03.453Z,2.17
2022-10-06T08:43:32.095Z,2.00
2022-10-06T08:46:02.161Z,2.20
2022-10-06T08:48:33.532Z,2.53
2022-10-06T08:51:08.814Z,2.40
2022-10-06T08:53:41.687Z,2.10
2022-10-06T08:56:13.748Z,2.20
2022-10-06T08:58:51.429Z,2.00
2022-10-06T09:01:20.452Z,1.70
2022-10-06T09:03:48.850Z,2.00
2022-10-06T09:06:28.506Z,2.05
2022-10-06T09:09:03.290Z,2.13
2022-10-06T09:11:45.259Z,2.25
2022-10-06T09:14:18.590Z,2.08
2022-10-06T09:16:51.360Z,1.83
2022-10-06T09:19:24.723Z,1.85
2022-10-06T09:21:54.118Z,2.10
2022-10-06T09:24:29.613Z,2.40
2022-10-06T09:26:57.722Z,1.95
2022-10-06T09:29:25.803Z,2.08
2022-10-06T09:31:52.615Z,2.10
2022-10-06T09:34:24.607Z,1.60
2022-10-06T09:37:03.895Z,1.90
2022-10-06T09:39:32.668Z,2.17
2022-10-06T09:42:03.272Z,2.05
2022-10-06T09:44:34.682Z,1.70
2022-10-06T09:47:01.454Z,1.73
2022-10-06T09:49:28.355Z,1.90
2022-10-06T09:52:00.543Z,2.00
2022-10-06T09:54:29.451Z,2.10
2022-10-06T09:56:57.503Z,2.10
2022-10-06T09:59:39.154Z,2.28
2022-10-06T10:02:23.964Z,1.98
2022-10-06T10:04:54.619Z,2.10
2022-10-06T10:07:23.127Z,2.00
2022-10-06T10:09:51.643Z,2.10
2022-10-06T10:12:20.194Z,2.40
2022-10-06T10:14:47.023Z,2.30
2022-10-06T10:17:17.996Z,3.40
2022-10-06T10:19:48.967Z,1.88
2022-10-06T10:22:21.639Z,1.90
2022-10-06T10:24:58.922Z,2.05
2022-10-06T10:27:32.656Z,2.05
2022-10-06T10:30:05.289Z,1.70
2022-10-06T10:32:50.802Z,1.95
2022-10-06T10:35:25.504Z,2.20
2022-10-06T10:37:56.236Z,2.15
2022-10-06T10:40:37.275Z,2.30
2022-10-06T10:43:13.751Z,2.13
2022-10-06T10:45:45.302Z,2.60
2022-10-06T10:48:17.223Z,1.95
2022-10-06T10:50:56.058Z,2.33
2022-10-06T10:53:31.275Z,2.30
2022-10-06T10:56:00.391Z,2.30
2022-10-06T10:58:31.795Z,2.30
2022-10-06T11:01:04.910Z,2.30
2022-10-06T11:03:31.953Z,2.63
2022-10-06T11:06:26.091Z,1.90
2022-10-06T11:08:59.726Z,2.22
2022-10-06T11:11:51.319Z,2.28
2022-10-06T11:14:32.339Z,2.38
2022-10-06T11:17:03.989Z,2.08
2022-10-06T11:19:42.048Z,2.13
2022-10-06T11:22:17.195Z,2.00
2022-10-06T11:24:52.690Z,1.92
2022-10-06T11:27:35.595Z,2.22
2022-10-06T11:30:11.323Z,2.28
2022-10-06T11:32:51.975Z,2.17
2022-10-06T11:35:21.377Z,2.33
2022-10-06T11:37:53.213Z,2.35
2022-10-06T11:40:46.238Z,2.00
2022-10-06T11:43:19.931Z,2.03
2022-10-06T11:45:53.768Z,1.73
2022-10-06T11:48:24.879Z,1.75
2022-10-06T11:50:51.961Z,2.40
2022-10-06T11:53:43.001Z,2.15
2022-10-06T11:56:38.157Z,2.28
2022-10-06T11:59:25.376Z,2.58
2022-10-06T12:01:56.683Z,2.28
2022-10-06T12:04:24.845Z,1.95
2022-10-06T12:07:01.976Z,2.05
2022-10-06T12:09:44.930Z,2.10
2022-10-06T12:12:42.811Z,2.35
2022-10-06T12:18:29.560Z,2.30
2022-10-06T12:21:09.265Z,1.80
2022-10-06T12:23:47.195Z,1.92
2022-10-06T12:26:24.672Z,1.85
2022-10-06T12:28:57.421Z,1.95
2022-10-06T12:31:45.616Z,1.88
2022-10-06T12:34:41.855Z,1.70
2022-10-06T12:37:36.669Z,1.83
2022-10-06T12:42:49.025Z,2.28
2022-10-06T12:45:16.902Z,1.73
2022-10-06T12:47:45.361Z,2.10
2022-10-06T12:50:17.119Z,1.92
2022-10-06T12:52:48.574Z,2.00
2022-10-06T12:55:38.597Z,1.88
2022-10-06T12:58:05.433Z,1.73
2022-10-06T13:00:35.250Z,1.83
2022-10-06T13:03:05.005Z,1.63
2022-10-06T13:05:33.073Z,1.70
2022-10-06T13:08:01.754Z,2.05
2022-10-06T13:10:29.428Z,2.35
2022-10-06T13:12:56.625Z,2.00
2022-10-06T13:15:24.888Z,1.60
2022-10-06T13:17:54.749Z,2.25
2022-10-06T13:20:35.431Z,2.50
2022-10-06T13:23:08.690Z,2.30
2022-10-06T13:25:44.687Z,2.30
2022-10-06T13:28:30.308Z,1.92
2022-10-06T13:30:59.079Z,2.10
2022-10-06T13:33:29.955Z,2.15
2022-10-06T13:35:58.555Z,2.60
2022-10-06T13:38:25.603Z,2.00
2022-10-06T13:41:21.770Z,2.05
2022-10-06T13:43:51.968Z,2.30
2022-10-06T13:46:21.948Z,1.58
2022-10-06T13:48:51.692Z,1.70
2022-10-06T13:51:23.201Z,1.83
2022-10-06T13:53:50.751Z,2.10
2022-10-06T13:56:32.424Z,1.67
2022-10-06T13:59:14.482Z,1.70
2022-10-06T14:01:41.416Z,1.70
2022-10-06T14:04:12.228Z,2.10
2022-10-06T14:06:46.859Z,1.83
2022-10-06T14:09:13.695Z,1.98
2022-10-06T14:11:43.454Z,1.95
2022-10-06T14:14:15.745Z,1.90
2022-10-06T14:16:48.178Z,1.75
2022-10-06T14:19:35.323Z,1.40
2022-10-06T14:22:05.767Z,1.83
2022-10-06T14:24:32.803Z,1.83
2022-10-06T14:27:01.950Z,2.13
2022-10-06T14:29:28.890Z,1.83
2022-10-06T14:31:55.601Z,1.90
2022-10-06T14:34:22.719Z,2.00
2022-10-06T14:36:51.399Z,1.98
2022-10-06T14:39:19.908Z,2.35
2022-10-06T14:41:46.816Z,2.25
2022-10-06T14:44:14.051Z,1.80
2022-10-06T14:46:42.401Z,2.00
2022-10-06T14:49:11.192Z,1.70
2022-10-06T14:51:39.595Z,1.52
2022-10-06T14:54:07.329Z,2.45
2022-10-06T14:56:36.602Z,2.05
2022-10-06T14:59:05.553Z,2.30
2022-10-06T15:01:34.017Z,2.15
2022-10-06T15:04:02.529Z,2.30
2022-10-06T15:06:29.514Z,2.20
2022-10-06T15:08:58.063Z,2.17
2022-10-06T15:11:26.828Z,2.13
2022-10-06T15:13:55.603Z,2.60
2022-10-06T15:16:22.731Z,2.10
2022-10-06T15:18:49.851Z,2.22
2022-10-06T15:21:17.210Z,2.40
2022-10-06T15:23:44.649Z,2.35
2022-10-06T15:26:11.602Z,2.45
2022-10-06T15:28:38.382Z,2.40
2022-10-06T15:31:06.584Z,2.70
2022-10-06T15:33:33.353Z,2.53
2022-10-06T15:36:17.897Z,2.70
2022-10-06T15:41:11.564Z,2.70
2022-10-06T15:43:38.672Z,3.05
2022-10-06T15:46:06.913Z,3.33
2022-10-06T15:48:33.666Z,2.50
2022-10-06T15:51:00.386Z,2.72
2022-10-06T15:53:27.153Z,2.55
2022-10-06T15:55:53.883Z,2.42
2022-10-06T15:58:20.633Z,2.80
2022-10-06T16:00:47.347Z,3.03
2022-10-06T16:03:15.397Z,2.30
2022-10-06T16:05:42.159Z,2.63
2022-10-06T16:08:08.999Z,2.30
2022-10-06T16:10:35.747Z,2.60
2022-10-06T16:13:02.510Z,2.47
2022-10-06T16:15:29.222Z,2.58
2022-10-06T16:17:55.932Z,2.30
2022-10-06T16:20:24.022Z,3.33
2022-10-06T16:22:50.782Z,2.30
2022-10-06T16:25:17.492Z,2.92
2022-10-06T16:27:44.203Z,2.90
2022-10-06T16:30:11.366Z,2.72
2022-10-06T16:32:38.276Z,2.17
2022-10-06T16:35:06.059Z,1.88
2022-10-06T16:37:34.288Z,2.10
2022-10-06T16:40:01.031Z,2.38
2022-10-06T16:42:27.797Z,2.28
2022-10-06T16:44:54.520Z,2.05
2022-10-06T16:47:21.231Z,2.35
2022-10-06T16:49:47.993Z,2.20
2022-10-06T16:52:14.697Z,2.05
2022-10-06T16:54:42.906Z,2.42
2022-10-06T16:57:09.633Z,2.20
2022-10-06T16:59:36.342Z,2.20
2022-10-06T17:02:03.086Z,2.17
2022-10-06T17:04:29.875Z,1.90
2022-10-06T17:06:57.182Z,2.33
2022-10-06T17:09:25.715Z,2.13
2022-10-06T17:11:55.549Z,2.17
2022-10-06T17:14:22.671Z,2.33
2022-10-06T17:16:51.103Z,2.17
2022-10-06T17:19:19.868Z,2.55
2022-10-06T17:21:49.679Z,3.63
2022-10-06T17:24:18.813Z,2.08
2022-10-06T17:26:47.481Z,2.60
2022-10-06T17:29:17.133Z,2.17
2022-10-06T17:31:44.855Z,2.30
2022-10-06T17:34:16.960Z,2.30
2022-10-06T17:36:47.851Z,2.38
2022-10-06T17:39:16.547Z,2.13
2022-10-06T17:41:44.697Z,2.38
2022-10-06T17:44:13.283Z,2.47
2022-10-06T17:46:43.063Z,2.40
2022-10-06T17:49:11.727Z,2.53
2022-10-06T17:51:40.660Z,2.53
2022-10-06T17:54:09.862Z,2.60
2022-10-06T17:56:36.571Z,3.05
2022-10-06T17:59:05.938Z,4.50
2022-10-06T18:01:33.685Z,4.10
2022-10-06T18:04:03.015Z,3.20
2022-10-06T18:06:32.492Z,3.42
2022-10-06T18:08:59.413Z,3.42
2022-10-06T18:11:26.851Z,3.10
2022-10-06T18:13:54.383Z,3.13
2022-10-06T18:16:22.681Z,2.47
2022-10-06T18:18:51.243Z,3.30
2022-10-06T18:21:20.955Z,4.50
2022-10-06T18:23:48.552Z,5.72
2022-10-06T18:26:16.712Z,5.65
2022-10-06T18:28:44.406Z,4.45
2022-10-06T18:31:12.233Z,5.25
2022-10-06T18:36:06.757Z,4.82
2022-10-06T18:36:27.666Z,4.40
2022-10-06T18:38:54.399Z,2.80
2022-10-06T18:41:23.399Z,3.60
2022-10-06T18:43:50.635Z,3.67
2022-10-06T18:46:18.319Z,3.65
2022-10-06T18:48:45.065Z,3.33
2022-10-06T18:51:11.779Z,3.80
2022-10-06T18:53:39.846Z,3.47
2022-10-06T18:56:06.749Z,3.38
2022-10-06T18:58:37.930Z,3.42
2022-10-06T19:01:04.773Z,3.22
2022-10-06T19:03:31.731Z,3.17
2022-10-06T19:05:58.484Z,3.25
2022-10-06T19:08:25.735Z,2.75
2022-10-06T19:10:53.801Z,3.03
2022-10-06T19:13:20.526Z,3.08
2022-10-06T19:15:50.451Z,2.53
2022-10-06T19:18:17.240Z,2.80
2022-10-06T19:20:50.499Z,2.60
2022-10-06T19:23:17.231Z,3.25
2022-10-06T19:25:43.975Z,3.65
2022-10-06T19:28:12.279Z,2.80
2022-10-06T19:30:39.061Z,3.60
2022-10-06T19:33:05.836Z,3.10
2022-10-06T19:35:32.547Z,3.80
2022-10-06T19:37:59.289Z,2.58
2022-10-06T19:40:26.052Z,2.65
2022-10-06T19:42:52.784Z,3.13
2022-10-06T19:45:21.132Z,2.83
2022-10-06T19:47:48.050Z,3.13
2022-10-06T19:50:15.613Z,2.72
2022-10-06T19:52:42.601Z,3.03
2022-10-06T19:55:09.460Z,3.08
2022-10-06T19:57:36.199Z,2.78
2022-10-06T20:00:04.289Z,3.25
2022-10-06T20:02:32.348Z,3.35
2022-10-06T20:04:59.093Z,3.13
2022-10-06T20:07:25.830Z,2.95
2022-10-06T20:09:52.899Z,2.38
2022-10-06T20:12:24.374Z,2.78
2022-10-06T20:14:51.543Z,2.45
2022-10-06T20:17:18.307Z,3.10
2022-10-06T20:19:46.425Z,2.55
2022-10-06T20:22:13.275Z,2.90
2022-10-06T20:24:40.173Z,2.92
2022-10-06T20:27:06.951Z,2.97
2022-10-06T20:29:33.819Z,2.58
2022-10-06T20:32:00.585Z,3.30
2022-10-06T20:34:28.911Z,4.13
2022-10-06T20:36:57.019Z,3.05
2022-10-06T20:39:23.859Z,3.17
2022-10-06T20:41:50.879Z,2.90
2022-10-06T20:44:17.620Z,3.03
2022-10-06T20:46:44.371Z,3.50
2022-10-06T20:49:12.983Z,3.30
2022-10-06T20:51:41.426Z,3.08
2022-10-06T20:54:09.848Z,2.85
2022-10-06T20:56:36.699Z,3.28
2022-10-06T20:59:04.542Z,3.22
2022-10-06T21:01:31.498Z,3.20
2022-10-06T21:03:58.364Z,2.58
2022-10-06T21:06:25.316Z,2.42
2022-10-06T21:08:52.444Z,2.03
2022-10-06T21:11:21.903Z,2.80
2022-10-06T21:13:49.652Z,2.38
2022-10-06T21:16:16.982Z,2.38
2022-10-06T21:18:43.926Z,2.47
2022-10-06T21:21:10.818Z,2.10
2022-10-06T21:23:38.910Z,2.38
2022-10-06T21:26:07.204Z,2.55
2022-10-06T21:28:35.901Z,2.40
2022-10-06T21:31:03.952Z,2.28
2022-10-06T21:33:30.890Z,2.72
2022-10-06T21:36:02.674Z,2.22
2022-10-06T21:38:30.107Z,2.42
2022-10-06T21:41:01.673Z,2.40
2022-10-06T21:43:28.541Z,2.42
2022-10-06T21:46:10.958Z,2.22
2022-10-06T21:48:43.589Z,2.08
2022-10-06T21:51:10.580Z,2.30
2022-10-06T21:53:37.404Z,2.42
2022-10-06T21:56:04.295Z,2.20
2022-10-06T21:58:31.139Z,2.13
2022-10-06T22:01:01.808Z,2.10
2022-10-06T22:03:28.671Z,2.17
2022-10-06T22:05:55.540Z,2.25
2022-10-06T22:08:22.407Z,2.35
2022-10-06T22:10:49.273Z,2.28
2022-10-06T22:13:16.115Z,2.15
2022-10-06T22:15:44.093Z,2.00
2022-10-06T22:18:12.385Z,2.00
2022-10-06T22:20:39.231Z,2.17
2022-10-06T22:23:06.056Z,2.15
2022-10-06T22:25:32.926Z,2.05
2022-10-06T22:27:59.804Z,1.90
2022-10-06T22:30:26.772Z,2.67
2022-10-06T22:32:53.641Z,2.22
2022-10-06T22:35:21.835Z,2.20
2022-10-06T22:37:49.155Z,1.88
2022-10-06T22:40:16.028Z,2.13
2022-10-06T22:42:42.894Z,2.00
2022-10-06T22:45:10.371Z,1.90
2022-10-06T22:47:37.235Z,2.17
2022-10-06T22:50:05.109Z,2.40
2022-10-06T22:52:33.279Z,1.98
2022-10-06T22:55:00.210Z,1.90
2022-10-06T22:57:27.057Z,2.08
2022-10-06T22:59:53.920Z,1.90
2022-10-06T23:02:20.748Z,1.85
2022-10-06T23:04:47.574Z,1.95
2022-10-06T23:07:14.445Z,1.95
2022-10-06T23:09:42.660Z,2.33
2022-10-06T23:12:09.509Z,1.73
2022-10-06T23:14:36.376Z,1.63
2022-10-06T23:17:03.211Z,1.70
2022-10-06T23:19:30.096Z,1.63
2022-10-06T23:21:56.936Z,1.92
2022-10-06T23:24:23.782Z,1.85
2022-10-06T23:26:51.998Z,2.03
2022-10-06T23:29:18.832Z,1.80
2022-10-06T23:31:45.785Z,1.83
2022-10-06T23:34:12.747Z,2.03
2022-10-06T23:36:39.598Z,1.90
2022-10-06T23:39:06.437Z,1.88
2022-10-06T23:41:33.303Z,2.08
2022-10-06T23:44:01.604Z,1.90
2022-10-06T23:46:28.472Z,2.17
2022-10-06T23:48:55.349Z,1.88
2022-10-06T23:51:22.211Z,2.05
2022-10-06T23:53:49.089Z,1.80
2022-10-06T23:56:16.076Z,1.88
2022-10-06T23:58:42.942Z,1.80
